Time;durP1;ratioP1;P1;durP2;ratioP2;P2;SDS_P1;SDS_P2;PMS_P1;PMS_P2;Temp;Humidity;BMP_temperature;BMP_pressure;BME280_temperature;BME280_humidity;BME280_pressure;Samples;Min_cycle;Max_cycle;Signal;HPM_P1;HPM_P2
2022/01/05 00:00:52;;;;;;;12.23;7.83;;;;;;;5.87;91.31;97112.23;1653198;86;21005;-41
2022/01/05 00:03:18;;;;;;;12.58;8.23;;;;;;;5.85;90.88;97121.13;1670557;85;21035;-41
2022/01/05 00:05:44;;;;;;;11.50;7.90;;;;;;;5.87;90.95;97127.06;1653338;86;21590;-41
2022/01/05 00:08:12;;;;;;;13.28;8.75;;;;;;;5.83;91.02;97128.23;1670522;84;20980;-44
2022/01/05 00:10:37;;;;;;;;;;;;;;;5.86;91.10;97133.23;1655759;86;21561;-41
2022/01/05 00:13:03;;;;;;;13.83;8.38;;;;;;;5.79;91.19;97136.73;1653453;86;20120;-41
2022/01/05 00:15:28;;;;;;;13.13;8.75;;;;;;;5.78;91.13;97141.58;1670496;84;21502;-41
2022/01/05 00:17:54;;;;;;;11.85;8.05;;;;;;;5.78;91.27;97136.36;1653420;86;21592;-41
2022/01/05 00:20:20;;;;;;;14.33;8.58;;;;;;;5.76;91.52;97133.03;1670581;86;21505;-40
2022/01/05 00:22:46;;;;;;;13.32;8.70;;;;;;;5.81;91.56;97137.94;1653447;86;21392;-41
2022/01/05 00:25:12;;;;;;;15.08;9.35;;;;;;;5.78;91.47;97137.67;1670530;85;21509;-41
2022/01/05 00:27:38;;;;;;;14.05;9.30;;;;;;;5.83;91.42;97135.58;1653401;86;21044;-41
2022/01/05 00:30:05;;;;;;;20.02;9.70;;;;;;;5.86;91.30;97141.89;1670574;84;20977;-41
2022/01/05 00:32:31;;;;;;;15.32;10.32;;;;;;;5.85;91.17;97140.20;1653432;86;21044;-41
2022/01/05 00:34:56;;;;;;;16.60;10.32;;;;;;;5.77;91.22;97144.67;1670496;84;21020;-40
2022/01/05 00:37:22;;;;;;;18.20;11.33;;;;;;;5.79;91.42;97151.56;1670525;86;21041;-40
2022/01/05 00:39:48;;;;;;;16.02;10.68;;;;;;;5.75;91.52;97155.69;1670501;84;21031;-40
2022/01/05 00:42:14;;;;;;;18.75;11.38;;;;;;;5.81;91.65;97145.77;1670509;84;21012;-40
2022/01/05 00:44:40;;;;;;;16.17;10.63;;;;;;;5.85;91.65;97143.30;1670464;86;21004;-40
2022/01/05 00:47:06;;;;;;;21.00;11.70;;;;;;;5.88;91.57;97141.78;1670916;83;21035;-41
2022/01/05 00:49:32;;;;;;;18.00;12.30;;;;;;;5.88;91.45;97136.56;1688693;85;21019;-41
2022/01/05 00:51:57;;;;;;;19.07;12.55;;;;;;;5.88;91.53;97132.17;1688634;85;20991;-41
2022/01/05 00:54:23;;;;;;;19.65;12.75;;;;;;;5.90;91.40;97138.11;1688738;84;21003;-41
2022/01/05 00:56:49;;;;;;;18.20;12.65;;;;;;;5.94;91.34;97142.64;1688755;84;21003;-41
2022/01/05 00:59:15;;;;;;;19.12;12.98;;;;;;;5.95;91.23;97143.02;1688593;84;21473;-41
2022/01/05 01:01:41;;;;;;;16.82;11.70;;;;;;;5.90;91.46;97147.72;1688717;84;21003;-41
2022/01/05 01:04:07;;;;;;;18.37;12.05;;;;;;;5.92;91.32;97156.27;1688678;84;21007;-41
2022/01/05 01:06:33;;;;;;;19.77;12.27;;;;;;;5.90;91.32;97156.38;1688893;84;21394;-41
2022/01/05 01:08:59;;;;;;;25.68;13.55;;;;;;;5.89;91.37;97155.17;1688645;85;21477;-41
2022/01/05 01:11:25;;;;;;;23.20;12.05;;;;;;;5.89;91.45;97164.30;1688623;85;21007;-41
2022/01/05 01:13:51;;;;;;;24.57;12.00;;;;;;;5.86;91.26;97174.97;1688559;85;21007;-41
2022/01/05 01:16:19;;;;;;;21.95;12.35;;;;;;;5.83;91.65;97177.79;1688622;84;21014;-41
2022/01/05 01:18:45;;;;;;;17.30;12.40;;;;;;;5.84;91.68;97178.12;1688665;85;21019;-41
2022/01/05 01:21:11;;;;;;;17.02;11.22;;;;;;;5.85;91.69;97187.64;1688592;85;21007;-41
2022/01/05 01:23:37;;;;;;;18.15;12.23;;;;;;;5.79;91.78;97199.81;1688741;84;21035;-41
2022/01/05 01:26:04;;;;;;;14.80;11.43;;;;;;;5.83;91.65;97201.27;1688647;83;21019;-41
2022/01/05 01:28:29;;;;;;;17.95;11.60;;;;;;;5.85;92.00;97202.81;1688673;84;21592;-41
2022/01/05 01:30:55;;;;;;;20.32;11.80;;;;;;;5.88;91.81;97197.88;1688628;85;21006;-41
2022/01/05 01:33:21;;;;;;;18.25;12.00;;;;;;;5.87;91.67;97204.02;1688586;84;21162;-41
2022/01/05 01:35:48;;;;;;;18.32;11.22;;;;;;;5.82;92.04;97196.52;1688668;85;20983;-41
2022/01/05 01:38:13;;;;;;;16.07;10.88;;;;;;;5.84;92.16;97196.39;1688603;85;21023;-41
2022/01/05 01:40:40;;;;;;;18.95;11.55;;;;;;;5.81;92.13;97197.93;1688704;84;21023;-41
2022/01/05 01:43:05;;;;;;;18.17;11.68;;;;;;;5.86;92.01;97182.32;1688358;85;21039;-41
2022/01/05 01:45:33;;;;;;;16.15;10.98;;;;;;;5.85;92.00;97191.55;1688750;85;21469;-41
2022/01/05 01:48:00;;;;;;;17.02;9.95;;;;;;;5.86;91.83;97195.36;1689998;83;21039;-41
2022/01/05 01:50:25;;;;;;;14.70;9.93;;;;;;;5.86;91.98;97207.09;1704323;84;21001;-41
2022/01/05 01:52:51;;;;;;;19.80;9.55;;;;;;;5.90;91.85;97201.20;1693321;85;21035;-41
2022/01/05 01:55:19;;;;;;;15.35;10.32;;;;;;;5.88;91.57;97195.27;1704266;84;21019;-41
2022/01/05 01:57:45;;;;;;;15.38;9.83;;;;;;;5.86;91.89;97199.27;1693583;85;20999;-41
2022/01/05 02:00:14;;;;;;;17.80;9.48;;;;;;;5.87;91.88;97202.70;1704427;82;20994;-42
2022/01/05 02:02:42;;;;;;;14.58;8.98;;;;;;;5.91;91.64;97205.45;1693578;83;21124;-41
2022/01/05 02:05:08;;;;;;;14.30;8.60;;;;;;;5.94;91.27;97201.34;1704280;84;21490;-41
2022/01/05 02:07:34;;;;;;;12.28;9.00;;;;;;;5.87;91.36;97198.80;1693559;85;21007;-42
2022/01/05 02:10:03;;;;;;;12.03;7.75;;;;;;;5.90;91.26;97201.20;1704403;83;21009;-41
2022/01/05 02:12:29;;;;;;;11.53;7.92;;;;;;;5.90;91.24;97209.02;1693573;85;20987;-41
2022/01/05 02:14:56;;;;;;;12.05;7.45;;;;;;;5.89;91.09;97213.39;1704463;84;21012;-41
2022/01/05 02:17:29;;;;;;;12.43;7.05;;;;;;;5.90;91.16;97203.81;1693938;84;21003;-41
2022/01/05 02:19:49;;;;;;;10.15;7.78;;;;;;;5.84;90.87;97215.51;1704351;84;21025;-38
2022/01/05 02:22:15;;;;;;;14.45;7.47;;;;;;;5.91;90.96;97221.11;1693528;84;21026;-41
2022/01/05 02:24:46;;;;;;;12.60;8.00;;;;;;;5.93;90.95;97225.75;1704280;82;21006;-41
2022/01/05 02:27:09;;;;;;;;;;;;;;;5.91;90.76;97232.41;1695316;85;20976;-39
2022/01/05 02:29:34;;;;;;;9.68;6.87;;;;;;;5.86;90.58;97231.05;1693547;85;20107;-39
2022/01/05 02:32:01;;;;;;;9.55;7.00;;;;;;;5.89;90.58;97237.34;1704224;84;21061;-40
2022/01/05 02:34:27;;;;;;;8.83;7.05;;;;;;;5.91;90.64;97241.98;1693662;84;20999;-41
2022/01/05 02:36:52;;;;;;;11.00;6.90;;;;;;;5.92;90.62;97238.45;1704480;83;21013;-41
2022/01/05 02:39:18;;;;;;;10.25;6.78;;;;;;;5.89;90.58;97242.08;1693712;85;21019;-41
2022/01/05 02:41:44;;;;;;;9.65;6.20;;;;;;;5.89;90.52;97246.00;1681069;81;21181;-41
2022/01/05 02:44:09;;;;;;;7.92;6.47;;;;;;;5.85;90.58;97243.72;1666475;86;21049;-41
2022/01/05 02:46:35;;;;;;;8.48;6.90;;;;;;;5.84;90.60;97243.34;1666551;86;21070;-41
2022/01/05 02:49:03;;;;;;;10.00;7.22;;;;;;;5.88;90.65;97239.61;1666562;86;21091;-40
2022/01/05 02:51:29;;;;;;;10.08;6.40;;;;;;;5.88;90.62;97232.61;1666709;86;21015;-41
2022/01/05 02:53:54;;;;;;;11.00;6.62;;;;;;;5.86;90.82;97229.27;1666510;86;21054;-41
2022/01/05 02:56:20;;;;;;;9.63;7.33;;;;;;;5.88;90.63;97232.61;1666675;86;21027;-41
2022/01/05 02:58:46;;;;;;;8.95;7.28;;;;;;;5.91;90.59;97227.63;1666189;86;21059;-41
2022/01/05 03:01:12;;;;;;;12.10;7.72;;;;;;;5.91;90.47;97226.33;1666444;85;21062;-41
2022/01/05 03:03:38;;;;;;;9.08;6.97;;;;;;;5.93;90.58;97225.75;1666581;86;21047;-41
2022/01/05 03:06:04;;;;;;;10.55;6.80;;;;;;;5.96;90.45;97218.57;1666557;86;21507;-41
2022/01/05 03:08:30;;;;;;;10.10;7.17;;;;;;;5.93;90.00;97200.52;1666644;86;21030;-41
2022/01/05 03:10:56;;;;;;;9.75;7.53;;;;;;;5.91;89.92;97202.41;1666534;86;20999;-41
2022/01/05 03:13:23;;;;;;;11.03;7.08;;;;;;;5.90;90.05;97210.33;1666444;86;21026;-41
2022/01/05 03:15:51;;;;;;;10.88;6.95;;;;;;;5.88;90.36;97218.73;1666691;86;21070;-41
2022/01/05 03:18:17;;;;;;;9.58;6.90;;;;;;;5.91;90.29;97214.59;1666506;86;21034;-41
2022/01/05 03:20:45;;;;;;;11.10;6.92;;;;;;;5.95;90.22;97218.67;1666583;85;21487;-41
2022/01/05 03:23:11;;;;;;;11.88;7.20;;;;;;;5.93;89.94;97223.14;1666356;86;20991;-41
2022/01/05 03:25:37;;;;;;;11.30;7.12;;;;;;;5.92;90.04;97225.41;1666627;86;21027;-41
2022/01/05 03:28:03;;;;;;;8.60;6.85;;;;;;;5.88;90.03;97222.17;1666449;86;21682;-41
2022/01/05 03:30:31;;;;;;;8.80;6.55;;;;;;;5.90;90.18;97227.28;1666497;86;21014;-41
2022/01/05 03:35:29;;;;;;;8.85;6.78;;;;;;;5.91;89.95;97218.05;1666459;86;20979;-40
2022/01/05 03:37:56;;;;;;;10.78;6.95;;;;;;;5.87;90.03;97214.45;1666508;86;21535;-39
2022/01/05 03:40:22;;;;;;;8.10;6.60;;;;;;;5.86;90.03;97210.19;1666439;86;21039;-40
2022/01/05 03:42:48;;;;;;;9.78;6.95;;;;;;;5.80;90.09;97208.81;1666402;85;21083;-40
2022/01/05 03:45:14;;;;;;;9.93;6.75;;;;;;;5.82;90.17;97205.66;1666485;86;21062;-40
2022/01/05 03:47:40;;;;;;;12.10;7.55;;;;;;;5.84;90.20;97201.61;1666570;86;21026;-40
2022/01/05 03:50:07;;;;;;;9.08;7.25;;;;;;;5.73;90.38;97197.99;1666572;85;21524;-40
2022/01/05 03:52:33;;;;;;;11.28;6.28;;;;;;;5.80;90.47;97201.47;1666710;86;21010;-40
2022/01/05 03:54:59;;;;;;;9.00;6.58;;;;;;;5.69;90.90;97206.94;1666440;85;21066;-40
2022/01/05 03:57:25;;;;;;;13.78;7.35;;;;;;;5.60;91.49;97204.97;1666580;86;21050;-40
2022/01/05 03:59:52;;;;;;;7.67;6.62;;;;;;;5.60;91.19;97214.58;1666552;85;21503;-40
2022/01/05 04:02:19;;;;;;;9.53;6.75;;;;;;;5.60;91.43;97212.79;1666868;86;21067;-41
2022/01/05 04:04:46;;;;;;;9.53;7.55;;;;;;;5.65;91.47;97218.53;1666747;85;21022;-41
2022/01/05 04:07:12;;;;;;;7.87;7.08;;;;;;;5.63;91.56;97224.33;1666594;86;21516;-41
2022/01/05 04:09:38;;;;;;;10.15;6.85;;;;;;;5.61;91.61;97249.67;1666427;86;21496;-41
2022/01/05 04:12:05;;;;;;;9.38;6.60;;;;;;;5.65;91.21;97250.30;1666663;86;21018;-41
2022/01/05 04:14:31;;;;;;;9.85;6.60;;;;;;;5.62;91.39;97240.92;1666647;86;20995;-41
2022/01/05 04:16:56;;;;;;;8.28;6.72;;;;;;;5.63;91.43;97225.63;1666470;86;21026;-41
2022/01/05 04:19:23;;;;;;;9.35;6.08;;;;;;;5.65;91.47;97219.83;1666461;85;21026;-41
2022/01/05 04:21:49;;;;;;;7.97;6.80;;;;;;;5.68;91.24;97215.72;1666718;86;21034;-41
2022/01/05 04:24:16;;;;;;;9.88;6.55;;;;;;;5.65;91.05;97219.83;1666459;86;21067;-42
2022/01/05 04:26:41;;;;;;;11.97;7.15;;;;;;;5.66;91.23;97222.82;1666489;85;21061;-41
2022/01/05 04:29:07;;;;;;;10.30;6.95;;;;;;;5.70;91.26;97212.53;1666526;86;21054;-41
2022/01/05 04:31:33;;;;;;;8.33;6.65;;;;;;;5.71;91.14;97216.83;1666550;86;21547;-41
2022/01/05 04:33:59;;;;;;;8.13;6.33;;;;;;;5.68;90.89;97207.90;1666438;86;21026;-41
2022/01/05 04:36:26;;;;;;;12.45;7.58;;;;;;;5.73;90.88;97212.78;1666458;86;21026;-42
2022/01/05 04:38:52;;;;;;;8.75;7.05;;;;;;;5.70;90.85;97212.53;1666409;86;20995;-41
2022/01/05 04:41:17;;;;;;;7.83;7.05;;;;;;;5.71;90.72;97211.61;1666573;85;21019;-41
2022/01/05 04:43:43;;;;;;;11.70;7.20;;;;;;;5.70;90.85;97220.36;1670227;85;21524;-41
2022/01/05 04:46:09;;;;;;;9.00;6.60;;;;;;;5.70;90.85;97209.93;1670633;86;21030;-41
2022/01/05 04:48:34;;;;;;;8.38;6.42;;;;;;;5.63;90.80;97207.38;1670555;86;21019;-41
2022/01/05 04:51:00;;;;;;;8.10;6.20;;;;;;;5.61;90.70;97184.48;1670545;86;21058;-41
2022/01/05 04:53:26;;;;;;;10.68;6.90;;;;;;;5.58;90.68;97184.69;1670454;86;21023;-45
2022/01/05 04:55:53;;;;;;;7.58;6.47;;;;;;;5.60;90.58;97201.53;1670547;86;21027;-41
2022/01/05 04:58:20;;;;;;;8.10;6.85;;;;;;;5.60;90.69;97214.09;1670783;86;21523;-40
2022/01/05 05:00:45;;;;;;;9.48;7.08;;;;;;;5.58;90.54;97219.89;1670565;86;21038;-39
2022/01/05 05:03:12;;;;;;;11.40;6.95;;;;;;;5.54;90.51;97236.69;1670534;86;21399;-40
2022/01/05 05:05:38;;;;;;;12.20;7.40;;;;;;;5.54;90.52;97245.33;1670520;86;21058;-40
2022/01/05 05:08:04;;;;;;;15.40;9.23;;;;;;;5.54;90.57;97244.51;1670499;86;21642;-40
2022/01/05 05:10:31;;;;;;;11.28;7.65;;;;;;;5.57;90.63;97244.31;1670645;86;21070;-40
2022/01/05 05:12:57;;;;;;;15.35;10.18;;;;;;;5.50;90.64;97245.18;1670619;86;21567;-40
2022/01/05 05:15:23;;;;;;;11.15;7.67;;;;;;;5.53;90.37;97243.68;1670455;86;21019;-40
2022/01/05 05:17:48;;;;;;;10.38;7.28;;;;;;;5.55;90.50;97244.89;1670528;86;21010;-40
2022/01/05 05:20:14;;;;;;;10.10;7.62;;;;;;;5.52;90.47;97242.00;1670544;86;21050;-40
2022/01/05 05:22:41;;;;;;;10.93;7.90;;;;;;;5.59;90.40;97246.34;1670482;86;21055;-40
2022/01/05 05:25:08;;;;;;;13.55;7.05;;;;;;;5.60;90.37;97242.77;1670613;86;21500;-40
2022/01/05 05:27:33;;;;;;;8.50;6.27;;;;;;;5.63;90.31;97254.31;1670743;84;21555;-39
2022/01/05 05:29:59;;;;;;;9.48;7.00;;;;;;;5.58;90.12;97268.12;1670552;86;21006;-39
2022/01/05 05:32:25;;;;;;;10.28;6.70;;;;;;;5.60;90.17;97268.84;1670521;86;21047;-40
2022/01/05 05:34:51;;;;;;;10.23;6.70;;;;;;;5.60;90.08;97267.55;1670492;86;20991;-40
2022/01/05 05:37:16;;;;;;;9.78;6.70;;;;;;;5.59;90.01;97264.59;1670471;86;21026;-40
2022/01/05 05:39:43;;;;;;;12.58;6.05;;;;;;;5.61;90.08;97257.97;1670578;86;20994;-40
2022/01/05 05:42:09;;;;;;;11.22;7.00;;;;;;;5.61;89.94;97260.10;1670509;84;21576;-40
2022/01/05 05:44:35;;;;;;;11.88;7.22;;;;;;;5.64;89.88;97255.99;1670692;86;21015;-40
2022/01/05 05:47:03;;;;;;;11.18;7.00;;;;;;;5.56;89.63;97257.80;1670564;86;21385;-40
2022/01/05 05:49:28;;;;;;;10.55;6.45;;;;;;;5.57;89.79;97261.25;1670742;86;21070;-40
2022/01/05 05:51:54;;;;;;;10.20;6.87;;;;;;;5.61;89.75;97260.58;1670475;86;21066;-40
2022/01/05 05:54:20;;;;;;;9.13;7.40;;;;;;;5.51;89.57;97269.47;1670549;86;21003;-40
2022/01/05 05:56:46;;;;;;;12.18;7.58;;;;;;;5.53;89.70;97276.72;1670585;86;21034;-40
2022/01/05 05:59:12;;;;;;;10.20;6.62;;;;;;;5.51;89.71;97270.33;1670488;86;21499;-40
2022/01/05 06:01:38;;;;;;;14.68;8.13;;;;;;;5.49;89.63;97260.92;1670472;86;21054;-41
2022/01/05 06:04:04;;;;;;;10.70;6.87;;;;;;;5.47;89.53;97264.11;1670480;85;21022;-41
2022/01/05 06:06:30;;;;;;;11.78;7.70;;;;;;;5.44;89.74;97276.89;1670475;86;21022;-41
2022/01/05 06:08:56;;;;;;;11.63;7.97;;;;;;;5.47;89.71;97269.31;1670450;86;21018;-40
2022/01/05 06:11:22;;;;;;;12.93;8.08;;;;;;;5.46;89.79;97279.40;1670585;86;21062;-40
2022/01/05 06:13:49;;;;;;;11.88;8.58;;;;;;;5.47;89.74;97282.35;1670542;86;21484;-40
2022/01/05 06:16:16;;;;;;;9.95;8.63;;;;;;;5.43;89.60;97280.42;1670709;86;21077;-40
2022/01/05 06:18:42;;;;;;;11.07;8.60;;;;;;;5.46;89.68;97280.70;1670721;86;21027;-40
2022/01/05 06:21:08;;;;;;;15.78;10.03;;;;;;;5.45;89.67;97293.36;1670547;86;21018;-40
2022/01/05 06:23:34;;;;;;;13.58;9.10;;;;;;;5.42;89.87;97282.67;1670565;86;21071;-40
2022/01/05 06:26:00;;;;;;;13.35;9.95;;;;;;;5.44;89.74;97274.73;1670525;86;21047;-40
2022/01/05 06:28:26;;;;;;;15.32;9.53;;;;;;;5.43;89.77;97284.80;1670496;86;21023;-40
2022/01/05 06:30:51;;;;;;;13.20;9.63;;;;;;;5.45;89.74;97293.36;1670559;86;20991;-40
2022/01/05 06:33:17;;;;;;;17.00;9.68;;;;;;;5.45;89.60;97304.61;1670470;84;21535;-41
2022/01/05 06:35:43;;;;;;;13.60;9.63;;;;;;;5.44;89.52;97312.52;1670637;86;21030;-41
2022/01/05 06:38:09;;;;;;;11.57;9.00;;;;;;;5.44;89.51;97320.34;1670550;86;21538;-41
2022/01/05 06:40:35;;;;;;;11.78;9.53;;;;;;;5.45;89.58;97313.73;1670555;86;21051;-41
2022/01/05 06:43:02;;;;;;;14.40;8.55;;;;;;;5.48;89.63;97295.77;1668699;85;21082;-40
2022/01/05 06:45:28;;;;;;;14.75;10.00;;;;;;;5.48;89.49;97294.47;1666414;85;21039;-41
2022/01/05 06:47:54;;;;;;;18.35;10.15;;;;;;;5.52;89.58;97305.05;1666517;86;20995;-41
2022/01/05 06:50:20;;;;;;;12.45;8.78;;;;;;;5.52;89.48;97289.41;1666359;86;21030;-41
2022/01/05 06:52:46;;;;;;;17.40;10.30;;;;;;;5.51;89.35;97287.72;1666394;85;21034;-40
2022/01/05 06:55:12;;;;;;;16.50;10.38;;;;;;;5.51;89.48;97291.62;1666329;86;21074;-41
2022/01/05 06:57:41;;;;;;;15.15;10.85;;;;;;;5.50;89.51;97296.50;1666391;86;21049;-41
2022/01/05 07:00:10;;;;;;;12.73;9.53;;;;;;;5.53;89.37;97302.79;1666394;86;21148;-41
2022/01/05 07:02:36;;;;;;;18.80;10.90;;;;;;;5.49;89.45;97311.76;1666040;85;21035;-41
2022/01/05 07:05:02;;;;;;;16.30;10.70;;;;;;;5.52;89.45;97308.48;1666347;86;21035;-41
2022/01/05 07:07:28;;;;;;;17.48;10.53;;;;;;;5.54;89.43;97316.20;1666734;86;21585;-41
2022/01/05 07:09:54;;;;;;;16.48;11.22;;;;;;;5.56;89.42;97309.11;1666431;86;21172;-41
2022/01/05 07:12:20;;;;;;;15.60;10.78;;;;;;;5.58;89.47;97308.53;1666438;85;21476;-41
2022/01/05 07:14:45;;;;;;;19.65;11.70;;;;;;;5.56;89.30;97294.30;1666339;86;21532;-41
2022/01/05 07:17:12;;;;;;;19.80;11.30;;;;;;;5.58;89.35;97290.28;1666368;85;21066;-41
2022/01/05 07:19:37;;;;;;;16.67;11.50;;;;;;;5.58;89.35;97283.77;1666455;85;20991;-40
2022/01/05 07:22:03;;;;;;;19.32;10.58;;;;;;;5.57;89.17;97288.16;1666463;86;21066;-41
2022/01/05 07:24:29;;;;;;;16.75;10.80;;;;;;;5.59;89.23;97288.06;1666510;85;21090;-41
2022/01/05 07:26:55;;;;;;;18.67;11.25;;;;;;;5.60;89.29;97288.41;1666534;85;21023;-41
2022/01/05 07:29:21;;;;;;;19.90;11.97;;;;;;;5.59;89.33;97289.36;1666470;86;21030;-41
2022/01/05 07:31:47;;;;;;;15.68;10.55;;;;;;;5.55;89.44;97294.42;1666424;86;21034;-42
2022/01/05 07:34:13;;;;;;;16.80;10.13;;;;;;;5.56;89.30;97292.16;1666459;86;21063;-42
2022/01/05 07:36:40;;;;;;;15.55;10.72;;;;;;;5.54;89.23;97299.26;1666794;86;21516;-41
2022/01/05 07:39:07;;;;;;;18.52;11.48;;;;;;;5.57;89.31;97293.84;1666499;86;21055;-41
2022/01/05 07:41:35;;;;;;;16.97;10.72;;;;;;;5.60;89.25;97294.92;1666605;86;21018;-41
2022/01/05 07:44:02;;;;;;;18.48;11.08;;;;;;;5.59;89.14;97290.66;1666388;85;21051;-41
2022/01/05 07:46:28;;;;;;;42.38;12.93;;;;;;;5.62;89.00;97293.52;1666588;86;21066;-41
2022/01/05 07:48:54;;;;;;;19.42;11.12;;;;;;;5.64;89.13;97291.20;1666499;85;21059;-41
2022/01/05 07:51:20;;;;;;;17.48;11.05;;;;;;;5.67;89.15;97284.45;1666584;86;21015;-41
2022/01/05 07:53:45;;;;;;;20.90;10.78;;;;;;;5.70;89.12;97283.42;1666444;85;21030;-41
2022/01/05 07:56:12;;;;;;;20.30;11.55;;;;;;;5.69;88.88;97280.44;1666466;86;21023;-41
2022/01/05 07:58:38;;;;;;;15.80;11.08;;;;;;;5.65;88.98;97274.59;1666449;86;21074;-41
2022/01/05 08:01:04;;;;;;;16.93;10.08;;;;;;;5.67;89.04;97279.71;1618098;86;21007;-41
2022/01/05 08:03:33;;;;;;;18.55;10.58;;;;;;;5.74;89.05;97281.80;1666636;85;21054;-41
2022/01/05 08:06:02;;;;;;;17.12;11.22;;;;;;;5.75;88.86;97291.30;1666455;85;20995;-41
2022/01/05 08:08:28;;;;;;;19.25;12.00;;;;;;;5.73;88.84;97289.27;1665791;85;21078;-41
2022/01/05 08:10:54;;;;;;;19.23;11.45;;;;;;;5.76;88.97;97283.83;1666502;85;21512;-41
2022/01/05 08:13:19;;;;;;;53.25;14.55;;;;;;;5.75;88.73;97286.08;1666592;86;21618;-42
2022/01/05 08:15:45;;;;;;;18.52;10.90;;;;;;;5.77;88.72;97290.72;1666493;86;21015;-42
2022/01/05 08:18:11;;;;;;;70.08;13.43;;;;;;;5.79;88.56;97287.19;1666446;86;21015;-41
2022/01/05 08:20:37;;;;;;;29.42;12.18;;;;;;;5.81;88.64;97286.61;1666463;86;21055;-41
2022/01/05 08:23:03;;;;;;;21.27;10.82;;;;;;;5.75;88.52;97284.78;1666470;86;21030;-42
2022/01/05 08:25:29;;;;;;;50.50;13.75;;;;;;;5.78;88.65;97285.03;1666465;86;21025;-41
2022/01/05 08:27:55;;;;;;;22.93;12.00;;;;;;;5.75;88.55;97286.08;1666415;86;21023;-41
2022/01/05 08:30:24;;;;;;;20.52;12.70;;;;;;;5.82;88.72;97284.34;1666387;86;21565;-41
2022/01/05 08:32:53;;;;;;;20.10;11.33;;;;;;;5.83;88.67;97285.55;1666211;85;21450;-41
2022/01/05 08:35:22;;;;;;;16.80;11.50;;;;;;;5.85;88.56;97271.11;1666457;86;21062;-41
2022/01/05 08:37:48;;;;;;;20.55;11.12;;;;;;;5.90;88.62;97275.55;1666553;85;21071;-41
2022/01/05 08:40:20;;;;;;;20.02;11.93;;;;;;;5.93;88.46;97276.17;1666555;86;21003;-41
2022/01/05 08:42:46;;;;;;;19.77;11.10;;;;;;;5.93;88.52;97273.56;1666452;85;21011;-42
2022/01/05 08:45:14;;;;;;;21.82;11.88;;;;;;;5.96;88.28;97272.05;1666542;86;21023;-42
2022/01/05 08:47:40;;;;;;;23.22;11.85;;;;;;;6.01;88.29;97274.84;1666329;85;21464;-41
2022/01/05 08:50:06;;;;;;;19.73;12.68;;;;;;;5.97;87.93;97272.91;1666468;85;21035;-42
2022/01/05 08:52:33;;;;;;;18.93;12.00;;;;;;;5.95;87.95;97268.25;1666701;86;21022;-41
2022/01/05 08:54:59;;;;;;;26.52;12.20;;;;;;;5.93;88.04;97264.87;1666210;86;21552;-42
2022/01/05 08:57:24;;;;;;;20.10;12.07;;;;;;;5.95;88.30;97274.77;1666304;85;21003;-42
2022/01/05 08:59:51;;;;;;;17.50;11.40;;;;;;;5.94;88.12;97272.61;1666232;86;21579;-40
2022/01/05 09:02:18;;;;;;;18.17;10.93;;;;;;;5.96;88.01;97272.05;1665264;85;20968;-40
2022/01/05 09:04:44;;;;;;;17.52;11.68;;;;;;;5.96;87.89;97273.84;1662674;85;21037;-42
2022/01/05 09:07:10;;;;;;;19.95;12.45;;;;;;;5.96;88.03;97273.84;1646532;85;21006;-42
2022/01/05 09:09:37;;;;;;;19.02;12.75;;;;;;;5.96;88.02;97269.92;1638173;86;21021;-41
2022/01/05 09:12:05;;;;;;;23.45;13.78;;;;;;;5.94;88.02;97275.69;1641340;85;21376;-41
2022/01/05 09:14:31;;;;;;;20.23;12.07;;;;;;;5.97;88.11;97280.73;1654225;85;21022;-41
2022/01/05 09:16:58;;;;;;;21.15;12.58;;;;;;;5.97;88.30;97275.52;1657087;86;22337;-42
2022/01/05 09:19:23;;;;;;;20.95;12.68;;;;;;;5.98;88.35;97269.83;1700658;83;21069;-41
2022/01/05 09:21:49;;;;;;;17.82;11.83;;;;;;;5.99;88.27;97272.81;1698375;83;21462;-43
2022/01/05 09:24:16;;;;;;;17.75;12.10;;;;;;;5.98;88.16;97265.91;1651331;85;21095;-43
2022/01/05 09:26:42;;;;;;;19.90;11.45;;;;;;;5.99;88.51;97278.03;1655912;85;21015;-46
2022/01/05 09:29:08;;;;;;;21.93;12.30;;;;;;;5.96;88.38;97275.14;1650895;85;21581;-42
2022/01/05 09:31:34;;;;;;;19.15;12.00;;;;;;;5.98;88.42;97273.27;1647546;85;21047;-42
2022/01/05 09:34:00;;;;;;;23.85;12.93;;;;;;;5.98;88.43;97266.73;1639001;86;21009;-41
2022/01/05 09:36:43;;;;;;;22.52;12.75;;;;;;;5.94;88.48;97270.00;1701569;83;21036;-40
2022/01/05 09:42:05;;;;;;;21.68;13.28;;;;;;;5.97;88.94;97270.30;1697300;83;21028;-41
2022/01/05 09:44:39;;;;;;;24.05;13.88;;;;;;;5.89;89.34;97264.73;1685152;82;21008;-40
2022/01/05 09:47:45;;;;;;;26.95;14.55;;;;;;;5.94;89.22;97261.34;1686158;84;21018;-41
2022/01/05 09:50:13;;;;;;;27.70;15.32;;;;;;;5.96;89.34;97267.32;1682466;84;21452;-41
2022/01/05 09:52:42;;;;;;;23.05;13.88;;;;;;;5.96;89.29;97266.02;1644106;86;21002;-42
2022/01/05 09:55:11;;;;;;;20.72;12.98;;;;;;;5.95;89.58;97269.10;1705879;82;20975;-42
2022/01/05 09:57:41;;;;;;;19.62;11.95;;;;;;;5.97;89.51;97269.00;1705903;83;20973;-42
2022/01/05 10:00:10;;;;;;;17.98;11.48;;;;;;;5.99;89.40;97268.90;1705759;83;20981;-42
2022/01/05 10:02:37;;;;;;;16.77;10.28;;;;;;;5.96;89.39;97270.75;1710475;83;21486;-41
2022/01/05 10:05:05;;;;;;;20.55;10.72;;;;;;;5.95;89.35;97273.46;1694629;84;21036;-43
2022/01/05 10:07:31;;;;;;;21.07;11.00;;;;;;;5.96;89.30;97256.41;1687018;84;21462;-41
2022/01/05 10:09:57;;;;;;;15.98;10.18;;;;;;;5.94;89.61;97277.82;1667766;84;21481;-42
2022/01/05 10:12:23;;;;;;;20.97;10.60;;;;;;;5.97;89.59;97271.61;1711443;82;21016;-41
2022/01/05 10:14:49;;;;;;;18.77;10.48;;;;;;;5.96;89.72;97263.41;1686610;84;21009;-43
2022/01/05 10:17:32;;;;;;;101.60;17.37;;;;;;;5.99;89.54;97262.38;1684264;84;21037;-42
2022/01/05 10:20:06;;;;;;;17.90;10.05;;;;;;;6.01;89.56;97268.31;1705148;83;21073;-42
2022/01/05 10:22:45;;;;;;;19.75;10.28;;;;;;;5.99;89.40;97250.16;1706902;83;21011;-42
2022/01/05 10:25:24;;;;;;;14.80;9.58;;;;;;;6.00;89.52;97255.72;1705724;83;20991;-41
2022/01/05 10:27:59;;;;;;;31.12;11.12;;;;;;;6.00;89.34;97252.29;1710818;83;20985;-41
2022/01/05 10:30:42;;;;;;;271.65;44.73;;;;;;;5.95;89.73;97260.42;1700886;83;21495;-42
2022/01/05 10:33:09;;;;;;;913.85;106.50;;;;;;;5.95;89.71;97259.11;1705104;83;21497;-42
2022/01/05 10:35:36;;;;;;;25.85;10.95;;;;;;;5.94;90.18;97262.65;1709287;83;21012;-42
2022/01/05 10:38:09;;;;;;;14.55;9.68;;;;;;;5.94;90.14;97256.95;1705132;83;21030;-42
2022/01/05 10:40:38;;;;;;;165.92;22.85;;;;;;;5.96;90.16;97252.97;1698779;83;20998;-41
2022/01/05 10:43:10;;;;;;;436.30;53.58;;;;;;;6.01;89.81;97246.14;1686094;84;21101;-41
2022/01/05 10:45:43;;;;;;;19.02;10.35;;;;;;;5.96;90.02;97255.58;1712527;82;21495;-42
2022/01/05 10:48:18;;;;;;;19.05;9.75;;;;;;;6.03;89.77;97257.30;1710049;82;20979;-40
2022/01/05 10:50:50;;;;;;;38.78;11.70;;;;;;;6.02;89.92;97261.70;1709131;82;21465;-42
2022/01/05 10:53:22;;;;;;;14.40;8.68;;;;;;;6.02;89.78;97258.23;1712560;82;21021;-41
2022/01/05 10:55:47;;;;;;;13.40;8.40;;;;;;;6.04;89.73;97268.94;1714762;82;20959;-41
2022/01/05 10:58:18;;;;;;;13.08;8.30;;;;;;;6.06;89.71;97275.37;1711627;82;21000;-41
2022/01/05 11:00:50;;;;;;;10.40;7.83;;;;;;;6.05;89.42;97273.68;1715075;82;21931;-41
2022/01/05 11:03:38;;;;;;;18.05;11.15;;;;;;;6.04;89.59;97268.09;1685745;84;20987;-41
2022/01/05 11:06:13;;;;;;;17.67;9.93;;;;;;;6.02;89.49;97266.91;1684062;84;21588;-41
2022/01/05 11:08:55;;;;;;;16.77;8.90;;;;;;;5.98;89.45;97258.91;1673057;85;21024;-40
2022/01/05 11:11:41;;;;;;;15.43;9.30;;;;;;;5.92;89.75;97251.48;1675757;84;21001;-43
2022/01/05 11:14:29;;;;;;;17.40;10.63;;;;;;;5.95;89.80;97253.89;1674771;85;20996;-40
2022/01/05 11:16:58;;;;;;;115.42;22.10;;;;;;;5.92;89.88;97253.62;1673086;85;21028;-41
2022/01/05 11:19:35;;;;;;;19.05;9.15;;;;;;;5.86;90.30;97251.92;1689200;84;21455;-41
2022/01/05 11:22:13;;;;;;;12.78;8.43;;;;;;;5.93;89.96;97262.27;1689249;83;21032;-43
2022/01/05 11:24:53;;;;;;;16.00;9.23;;;;;;;5.91;90.01;97251.97;1690686;84;21031;-41
2022/01/05 11:27:27;;;;;;;22.52;11.57;;;;;;;5.85;90.47;97244.55;1687690;84;21012;-41
2022/01/05 11:29:54;;;;;;;13.20;9.23;;;;;;;5.86;90.49;97256.66;1648155;85;21091;-41
2022/01/05 11:32:26;;;;;;;19.90;9.50;;;;;;;5.88;90.40;97248.26;1647217;85;20996;-42
2022/01/05 11:34:52;;;;;;;16.32;8.78;;;;;;;5.79;89.86;97263.72;1646571;85;20989;-41
2022/01/05 11:37:19;;;;;;;37.67;11.57;;;;;;;5.77;90.18;97272.94;1647280;85;21005;-42